Lawrence Municipal Airport Lawrence US
ICAO: KLWM
IATA: LWM
Category: Medium
Scheduled Services: No

Elevation: 148 ft
TransAlt. 18000 ft.

Airport Communications:
BOSTON APP/DEP:124.4
ASOS:126.75
ATIS:126.75
CLNC DEL:124.3
CTAF:119.25
GND:124.3
BRIDGEPORT RDO:112.5
TWR:119.25
UNICOM:122.8

KLWM Zoom In..

If you have problems with the map follow the link
https://www.worldairports.se/pages/airport.php?
ICAO=KLWM

Runways:

(A) RW 05 length 5001 ft width 150 ft
ILS 111.70 / hdg 53

(B) RW 14 length 3900 ft width 100 ft
---- / hdg 137

(C) RW 23 length 5001 ft width 150 ft
---- / hdg 233

(D) RW 32 length 3900 ft width 100 ft
---- / hdg 317

Location; KLWM
Day. 19 / Time. 13.16 Zulu
* Altimeter: 30.18
* Temperature: 02° c. 35.6°f.
* Wind from: 020° Speed 03 kn.
Dewpoint: -01° c.
Visibility: 3 Statute Miles.
Clouds: Overcast 400 ft.
Conditions: Light Rain.Conditions: Mist.

KLWM 191316Z 02003KT 3SM -RA BR OVC004 02/M01 A3018 RMK AO2 P0000 T00171006


Wind From 020°
Speed 03 kn.

 
 
jpsmedia.com for Web Design worldairports.se 2018   terms of use